sensor_id;sensor_type;location;lat;lon;timestamp;P1;durP1;ratioP1;P2;durP2;ratioP2
37513;SDS011;52779;42.670;23.326;2024-01-15T00:02:07;43.72;;;19.55;;
37513;SDS011;52779;42.670;23.326;2024-01-15T00:04:40;40.92;;;19.15;;
37513;SDS011;52779;42.670;23.326;2024-01-15T00:07:06;36.00;;;18.13;;
37513;SDS011;52779;42.670;23.326;2024-01-15T00:09:31;33.42;;;17.80;;
37513;SDS011;52779;42.670;23.326;2024-01-15T00:11:57;37.40;;;18.00;;
37513;SDS011;52779;42.670;23.326;2024-01-15T00:14:23;38.97;;;19.20;;
37513;SDS011;52779;42.670;23.326;2024-01-15T00:16:49;37.20;;;17.52;;
37513;SDS011;52779;42.670;23.326;2024-01-15T00:19:16;36.55;;;18.05;;
37513;SDS011;52779;42.670;23.326;2024-01-15T00:21:42;36.42;;;17.63;;
37513;SDS011;52779;42.670;23.326;2024-01-15T00:24:07;38.88;;;19.08;;
37513;SDS011;52779;42.670;23.326;2024-01-15T00:26:33;41.97;;;21.40;;
37513;SDS011;52779;42.670;23.326;2024-01-15T00:28:58;37.92;;;18.65;;
37513;SDS011;52779;42.670;23.326;2024-01-15T00:31:23;35.90;;;19.30;;
37513;SDS011;52779;42.670;23.326;2024-01-15T00:33:49;42.38;;;19.35;;
37513;SDS011;52779;42.670;23.326;2024-01-15T00:36:14;38.03;;;18.30;;
37513;SDS011;52779;42.670;23.326;2024-01-15T00:38:41;39.33;;;19.85;;
37513;SDS011;52779;42.670;23.326;2024-01-15T00:41:07;42.95;;;19.58;;
37513;SDS011;52779;42.670;23.326;2024-01-15T00:43:32;41.35;;;19.88;;
37513;SDS011;52779;42.670;23.326;2024-01-15T00:45:58;51.28;;;21.30;;
37513;SDS011;52779;42.670;23.326;2024-01-15T00:48:26;39.70;;;19.50;;
37513;SDS011;52779;42.670;23.326;2024-01-15T00:50:51;37.03;;;19.50;;
37513;SDS011;52779;42.670;23.326;2024-01-15T00:53:19;41.78;;;21.83;;
37513;SDS011;52779;42.670;23.326;2024-01-15T00:55:47;37.55;;;19.02;;
37513;SDS011;52779;42.670;23.326;2024-01-15T00:58:12;36.25;;;19.75;;
37513;SDS011;52779;42.670;23.326;2024-01-15T01:00:37;41.22;;;20.20;;
37513;SDS011;52779;42.670;23.326;2024-01-15T01:03:03;42.53;;;20.42;;
37513;SDS011;52779;42.670;23.326;2024-01-15T01:05:28;39.00;;;20.65;;
37513;SDS011;52779;42.670;23.326;2024-01-15T01:07:54;47.35;;;20.88;;
37513;SDS011;52779;42.670;23.326;2024-01-15T01:10:19;48.13;;;20.67;;
37513;SDS011;52779;42.670;23.326;2024-01-15T01:12:44;44.90;;;21.13;;
37513;SDS011;52779;42.670;23.326;2024-01-15T01:15:10;40.58;;;20.33;;
37513;SDS011;52779;42.670;23.326;2024-01-15T01:17:35;40.15;;;18.40;;
37513;SDS011;52779;42.670;23.326;2024-01-15T01:20:01;37.72;;;17.23;;
37513;SDS011;52779;42.670;23.326;2024-01-15T01:22:29;35.80;;;17.75;;
37513;SDS011;52779;42.670;23.326;2024-01-15T01:24:54;34.95;;;16.50;;
37513;SDS011;52779;42.670;23.326;2024-01-15T01:27:20;36.53;;;17.98;;
37513;SDS011;52779;42.670;23.326;2024-01-15T01:29:45;35.42;;;17.05;;
37513;SDS011;52779;42.670;23.326;2024-01-15T01:32:10;35.90;;;17.50;;
37513;SDS011;52779;42.670;23.326;2024-01-15T01:34:39;35.45;;;17.70;;
37513;SDS011;52779;42.670;23.326;2024-01-15T01:37:09;34.72;;;17.50;;
37513;SDS011;52779;42.670;23.326;2024-01-15T01:39:37;44.13;;;19.38;;
37513;SDS011;52779;42.670;23.326;2024-01-15T01:42:02;39.92;;;18.67;;
37513;SDS011;52779;42.670;23.326;2024-01-15T01:44:28;41.05;;;18.17;;
37513;SDS011;52779;42.670;23.326;2024-01-15T01:46:53;37.17;;;19.00;;
37513;SDS011;52779;42.670;23.326;2024-01-15T01:49:19;40.75;;;18.70;;
37513;SDS011;52779;42.670;23.326;2024-01-15T01:51:44;37.40;;;18.63;;
37513;SDS011;52779;42.670;23.326;2024-01-15T01:54:11;38.97;;;17.38;;
37513;SDS011;52779;42.670;23.326;2024-01-15T01:56:38;38.65;;;17.92;;
37513;SDS011;52779;42.670;23.326;2024-01-15T01:59:04;40.22;;;18.15;;
37513;SDS011;52779;42.670;23.326;2024-01-15T02:01:32;32.80;;;16.83;;
37513;SDS011;52779;42.670;23.326;2024-01-15T02:03:57;36.80;;;18.02;;
37513;SDS011;52779;42.670;23.326;2024-01-15T02:06:23;41.72;;;18.40;;
37513;SDS011;52779;42.670;23.326;2024-01-15T02:08:49;41.92;;;18.50;;
37513;SDS011;52779;42.670;23.326;2024-01-15T02:11:15;37.85;;;18.13;;
37513;SDS011;52779;42.670;23.326;2024-01-15T02:13:40;39.05;;;19.92;;
37513;SDS011;52779;42.670;23.326;2024-01-15T02:16:06;41.17;;;18.27;;
37513;SDS011;52779;42.670;23.326;2024-01-15T02:18:41;39.10;;;18.02;;
37513;SDS011;52779;42.670;23.326;2024-01-15T02:21:07;36.78;;;18.40;;
37513;SDS011;52779;42.670;23.326;2024-01-15T02:23:33;36.95;;;17.75;;
37513;SDS011;52779;42.670;23.326;2024-01-15T02:25:58;36.50;;;18.52;;
37513;SDS011;52779;42.670;23.326;2024-01-15T02:28:23;35.92;;;18.80;;
37513;SDS011;52779;42.670;23.326;2024-01-15T02:30:49;42.60;;;17.75;;
37513;SDS011;52779;42.670;23.326;2024-01-15T02:33:14;39.05;;;17.08;;
37513;SDS011;52779;42.670;23.326;2024-01-15T02:35:39;37.03;;;17.05;;
37513;SDS011;52779;42.670;23.326;2024-01-15T02:38:05;42.22;;;17.70;;
37513;SDS011;52779;42.670;23.326;2024-01-15T02:40:31;32.63;;;16.35;;
37513;SDS011;52779;42.670;23.326;2024-01-15T02:42:56;35.05;;;16.70;;
37513;SDS011;52779;42.670;23.326;2024-01-15T02:45:22;36.40;;;18.15;;
37513;SDS011;52779;42.670;23.326;2024-01-15T02:47:48;34.25;;;17.20;;
37513;SDS011;52779;42.670;23.326;2024-01-15T02:50:13;35.08;;;17.65;;
37513;SDS011;52779;42.670;23.326;2024-01-15T02:52:39;35.67;;;17.92;;
37513;SDS011;52779;42.670;23.326;2024-01-15T02:55:04;34.42;;;16.98;;
37513;SDS011;52779;42.670;23.326;2024-01-15T02:57:30;32.00;;;15.98;;
37513;SDS011;52779;42.670;23.326;2024-01-15T02:59:55;38.60;;;16.65;;
37513;SDS011;52779;42.670;23.326;2024-01-15T03:02:21;33.20;;;15.38;;
37513;SDS011;52779;42.670;23.326;2024-01-15T03:04:46;32.45;;;15.98;;
37513;SDS011;52779;42.670;23.326;2024-01-15T03:07:12;30.90;;;14.68;;
37513;SDS011;52779;42.670;23.326;2024-01-15T03:09:37;37.30;;;16.45;;
37513;SDS011;52779;42.670;23.326;2024-01-15T03:12:03;28.27;;;15.05;;
37513;SDS011;52779;42.670;23.326;2024-01-15T03:14:29;33.00;;;16.30;;
37513;SDS011;52779;42.670;23.326;2024-01-15T03:16:54;35.97;;;17.05;;
37513;SDS011;52779;42.670;23.326;2024-01-15T03:19:20;42.83;;;20.58;;
37513;SDS011;52779;42.670;23.326;2024-01-15T03:21:45;43.08;;;19.02;;
37513;SDS011;52779;42.670;23.326;2024-01-15T03:24:11;44.17;;;22.15;;
37513;SDS011;52779;42.670;23.326;2024-01-15T03:26:36;49.42;;;24.83;;
37513;SDS011;52779;42.670;23.326;2024-01-15T03:29:02;59.28;;;26.83;;
37513;SDS011;52779;42.670;23.326;2024-01-15T03:31:27;48.67;;;26.15;;
37513;SDS011;52779;42.670;23.326;2024-01-15T03:33:52;47.67;;;22.27;;
37513;SDS011;52779;42.670;23.326;2024-01-15T03:36:18;49.95;;;22.13;;
37513;SDS011;52779;42.670;23.326;2024-01-15T03:38:43;54.85;;;26.00;;
37513;SDS011;52779;42.670;23.326;2024-01-15T03:41:08;62.33;;;29.73;;
37513;SDS011;52779;42.670;23.326;2024-01-15T03:43:34;61.35;;;29.80;;
37513;SDS011;52779;42.670;23.326;2024-01-15T03:45:59;61.35;;;29.67;;
37513;SDS011;52779;42.670;23.326;2024-01-15T03:48:25;60.60;;;29.25;;
37513;SDS011;52779;42.670;23.326;2024-01-15T03:50:50;60.92;;;30.73;;
37513;SDS011;52779;42.670;23.326;2024-01-15T03:53:18;62.88;;;30.65;;
37513;SDS011;52779;42.670;23.326;2024-01-15T03:55:44;58.15;;;27.98;;
37513;SDS011;52779;42.670;23.326;2024-01-15T03:58:09;34.60;;;17.25;;
37513;SDS011;52779;42.670;23.326;2024-01-15T04:00:34;43.15;;;18.90;;
37513;SDS011;52779;42.670;23.326;2024-01-15T04:03:00;29.75;;;16.80;;
37513;SDS011;52779;42.670;23.326;2024-01-15T04:05:25;32.38;;;17.20;;
37513;SDS011;52779;42.670;23.326;2024-01-15T04:07:50;36.42;;;16.60;;
37513;SDS011;52779;42.670;23.326;2024-01-15T04:10:16;32.42;;;16.77;;
37513;SDS011;52779;42.670;23.326;2024-01-15T04:12:41;33.17;;;17.30;;
37513;SDS011;52779;42.670;23.326;2024-01-15T04:15:06;39.92;;;19.05;;
37513;SDS011;52779;42.670;23.326;2024-01-15T04:17:32;42.47;;;17.50;;
37513;SDS011;52779;42.670;23.326;2024-01-15T04:19:58;40.75;;;19.20;;
37513;SDS011;52779;42.670;23.326;2024-01-15T04:22:25;37.28;;;17.52;;
37513;SDS011;52779;42.670;23.326;2024-01-15T04:24:50;35.85;;;17.60;;
37513;SDS011;52779;42.670;23.326;2024-01-15T04:27:16;39.13;;;18.50;;
37513;SDS011;52779;42.670;23.326;2024-01-15T04:29:41;40.55;;;19.33;;
37513;SDS011;52779;42.670;23.326;2024-01-15T04:32:06;41.38;;;19.65;;
37513;SDS011;52779;42.670;23.326;2024-01-15T04:34:32;36.90;;;17.65;;
37513;SDS011;52779;42.670;23.326;2024-01-15T04:36:57;36.70;;;17.98;;
37513;SDS011;52779;42.670;23.326;2024-01-15T04:39:22;40.63;;;18.80;;
37513;SDS011;52779;42.670;23.326;2024-01-15T04:41:48;46.63;;;20.23;;
37513;SDS011;52779;42.670;23.326;2024-01-15T04:44:14;35.70;;;18.30;;
37513;SDS011;52779;42.670;23.326;2024-01-15T04:46:39;35.15;;;18.75;;
37513;SDS011;52779;42.670;23.326;2024-01-15T04:49:05;45.28;;;18.75;;
37513;SDS011;52779;42.670;23.326;2024-01-15T04:51:30;42.88;;;18.00;;
37513;SDS011;52779;42.670;23.326;2024-01-15T04:53:55;39.58;;;18.85;;
37513;SDS011;52779;42.670;23.326;2024-01-15T04:56:21;43.90;;;18.42;;
37513;SDS011;52779;42.670;23.326;2024-01-15T04:58:46;48.78;;;31.27;;
37513;SDS011;52779;42.670;23.326;2024-01-15T05:01:11;35.92;;;19.80;;
37513;SDS011;52779;42.670;23.326;2024-01-15T05:03:37;43.75;;;21.08;;
37513;SDS011;52779;42.670;23.326;2024-01-15T05:06:02;40.85;;;19.45;;
37513;SDS011;52779;42.670;23.326;2024-01-15T05:08:28;35.28;;;19.65;;
37513;SDS011;52779;42.670;23.326;2024-01-15T05:10:53;39.67;;;18.45;;
37513;SDS011;52779;42.670;23.326;2024-01-15T05:13:18;42.28;;;21.17;;
37513;SDS011;52779;42.670;23.326;2024-01-15T05:15:44;44.50;;;19.90;;
37513;SDS011;52779;42.670;23.326;2024-01-15T05:18:09;40.58;;;19.15;;
37513;SDS011;52779;42.670;23.326;2024-01-15T05:20:34;34.67;;;18.83;;
37513;SDS011;52779;42.670;23.326;2024-01-15T05:23:00;37.85;;;20.65;;
37513;SDS011;52779;42.670;23.326;2024-01-15T05:25:25;42.67;;;20.65;;
37513;SDS011;52779;42.670;23.326;2024-01-15T05:27:51;42.58;;;20.40;;
37513;SDS011;52779;42.670;23.326;2024-01-15T05:30:16;48.95;;;21.58;;
37513;SDS011;52779;42.670;23.326;2024-01-15T05:32:41;53.40;;;25.92;;
37513;SDS011;52779;42.670;23.326;2024-01-15T05:35:07;54.45;;;26.15;;
37513;SDS011;52779;42.670;23.326;2024-01-15T05:37:32;66.15;;;28.35;;
37513;SDS011;52779;42.670;23.326;2024-01-15T05:39:58;52.90;;;27.75;;
37513;SDS011;52779;42.670;23.326;2024-01-15T05:42:23;59.22;;;28.35;;
37513;SDS011;52779;42.670;23.326;2024-01-15T05:44:48;51.85;;;25.10;;
37513;SDS011;52779;42.670;23.326;2024-01-15T05:47:14;53.42;;;25.08;;
37513;SDS011;52779;42.670;23.326;2024-01-15T05:49:40;59.63;;;26.88;;
37513;SDS011;52779;42.670;23.326;2024-01-15T05:52:05;58.72;;;27.05;;
37513;SDS011;52779;42.670;23.326;2024-01-15T05:54:31;57.17;;;24.83;;
37513;SDS011;52779;42.670;23.326;2024-01-15T05:56:56;54.47;;;25.73;;
37513;SDS011;52779;42.670;23.326;2024-01-15T05:59:22;60.08;;;28.20;;
37513;SDS011;52779;42.670;23.326;2024-01-15T06:01:47;56.30;;;28.02;;
37513;SDS011;52779;42.670;23.326;2024-01-15T06:04:12;60.40;;;28.33;;
37513;SDS011;52779;42.670;23.326;2024-01-15T06:06:38;63.13;;;26.75;;
37513;SDS011;52779;42.670;23.326;2024-01-15T06:09:03;56.25;;;27.77;;
37513;SDS011;52779;42.670;23.326;2024-01-15T06:11:34;56.75;;;30.70;;
37513;SDS011;52779;42.670;23.326;2024-01-15T06:13:59;63.13;;;31.23;;
37513;SDS011;52779;42.670;23.326;2024-01-15T06:16:25;67.53;;;31.83;;
37513;SDS011;52779;42.670;23.326;2024-01-15T06:18:51;59.05;;;28.83;;
37513;SDS011;52779;42.670;23.326;2024-01-15T06:21:16;56.92;;;28.65;;
37513;SDS011;52779;42.670;23.326;2024-01-15T06:23:42;58.38;;;31.08;;
37513;SDS011;52779;42.670;23.326;2024-01-15T06:26:07;65.00;;;30.75;;
37513;SDS011;52779;42.670;23.326;2024-01-15T06:28:33;62.72;;;30.90;;
37513;SDS011;52779;42.670;23.326;2024-01-15T06:30:58;65.97;;;30.75;;
37513;SDS011;52779;42.670;23.326;2024-01-15T06:33:23;68.28;;;33.70;;
37513;SDS011;52779;42.670;23.326;2024-01-15T06:35:49;61.22;;;30.92;;
37513;SDS011;52779;42.670;23.326;2024-01-15T06:38:15;69.60;;;31.10;;
37513;SDS011;52779;42.670;23.326;2024-01-15T06:40:41;66.30;;;30.85;;
37513;SDS011;52779;42.670;23.326;2024-01-15T06:43:13;76.78;;;34.45;;
37513;SDS011;52779;42.670;23.326;2024-01-15T06:45:39;64.40;;;32.78;;
37513;SDS011;52779;42.670;23.326;2024-01-15T06:48:05;67.22;;;33.00;;
37513;SDS011;52779;42.670;23.326;2024-01-15T06:50:30;71.55;;;35.55;;
37513;SDS011;52779;42.670;23.326;2024-01-15T06:52:56;61.97;;;33.13;;
37513;SDS011;52779;42.670;23.326;2024-01-15T06:55:21;66.25;;;32.28;;
37513;SDS011;52779;42.670;23.326;2024-01-15T06:57:47;72.75;;;36.40;;
37513;SDS011;52779;42.670;23.326;2024-01-15T07:00:12;85.93;;;40.80;;
37513;SDS011;52779;42.670;23.326;2024-01-15T07:02:38;81.30;;;40.22;;
37513;SDS011;52779;42.670;23.326;2024-01-15T07:05:03;79.85;;;38.30;;
37513;SDS011;52779;42.670;23.326;2024-01-15T07:07:30;74.95;;;38.50;;
37513;SDS011;52779;42.670;23.326;2024-01-15T07:09:56;80.75;;;38.95;;
37513;SDS011;52779;42.670;23.326;2024-01-15T07:12:21;81.25;;;43.33;;
37513;SDS011;52779;42.670;23.326;2024-01-15T07:14:47;80.75;;;40.35;;
37513;SDS011;52779;42.670;23.326;2024-01-15T07:17:12;77.88;;;40.45;;
37513;SDS011;52779;42.670;23.326;2024-01-15T07:19:37;88.15;;;42.35;;
37513;SDS011;52779;42.670;23.326;2024-01-15T07:22:03;72.95;;;38.08;;
37513;SDS011;52779;42.670;23.326;2024-01-15T07:24:28;71.03;;;38.25;;
37513;SDS011;52779;42.670;23.326;2024-01-15T07:26:53;74.80;;;39.25;;
37513;SDS011;52779;42.670;23.326;2024-01-15T07:29:19;71.90;;;37.88;;
37513;SDS011;52779;42.670;23.326;2024-01-15T07:31:50;73.60;;;36.33;;
37513;SDS011;52779;42.670;23.326;2024-01-15T07:34:16;71.55;;;38.45;;
37513;SDS011;52779;42.670;23.326;2024-01-15T07:36:45;74.57;;;38.38;;
37513;SDS011;52779;42.670;23.326;2024-01-15T07:39:11;73.25;;;37.03;;
37513;SDS011;52779;42.670;23.326;2024-01-15T07:41:36;76.45;;;36.10;;
37513;SDS011;52779;42.670;23.326;2024-01-15T07:44:02;72.28;;;37.78;;
37513;SDS011;52779;42.670;23.326;2024-01-15T07:46:27;73.07;;;37.03;;
37513;SDS011;52779;42.670;23.326;2024-01-15T07:48:53;81.68;;;40.33;;
37513;SDS011;52779;42.670;23.326;2024-01-15T07:51:24;72.40;;;37.45;;
37513;SDS011;52779;42.670;23.326;2024-01-15T07:53:50;73.00;;;35.55;;
37513;SDS011;52779;42.670;23.326;2024-01-15T07:56:18;73.90;;;37.40;;
37513;SDS011;52779;42.670;23.326;2024-01-15T07:58:43;59.45;;;32.05;;
37513;SDS011;52779;42.670;23.326;2024-01-15T08:01:09;58.78;;;31.30;;
37513;SDS011;52779;42.670;23.326;2024-01-15T08:03:34;62.33;;;31.20;;
37513;SDS011;52779;42.670;23.326;2024-01-15T08:06:00;67.35;;;32.70;;
37513;SDS011;52779;42.670;23.326;2024-01-15T08:08:25;67.68;;;32.10;;
37513;SDS011;52779;42.670;23.326;2024-01-15T08:10:54;78.25;;;34.47;;
37513;SDS011;52779;42.670;23.326;2024-01-15T08:13:20;64.80;;;33.50;;
37513;SDS011;52779;42.670;23.326;2024-01-15T08:15:45;61.33;;;31.58;;
37513;SDS011;52779;42.670;23.326;2024-01-15T08:18:11;74.07;;;32.20;;
37513;SDS011;52779;42.670;23.326;2024-01-15T08:20:37;66.40;;;32.30;;
37513;SDS011;52779;42.670;23.326;2024-01-15T08:23:02;64.53;;;31.00;;
37513;SDS011;52779;42.670;23.326;2024-01-15T08:25:28;70.97;;;31.98;;
37513;SDS011;52779;42.670;23.326;2024-01-15T08:27:53;58.58;;;29.17;;
37513;SDS011;52779;42.670;23.326;2024-01-15T08:30:19;49.45;;;27.58;;
37513;SDS011;52779;42.670;23.326;2024-01-15T08:32:45;49.05;;;27.67;;
37513;SDS011;52779;42.670;23.326;2024-01-15T08:35:10;58.70;;;26.75;;
37513;SDS011;52779;42.670;23.326;2024-01-15T08:37:36;47.60;;;25.65;;
37513;SDS011;52779;42.670;23.326;2024-01-15T08:40:03;49.95;;;26.85;;
37513;SDS011;52779;42.670;23.326;2024-01-15T08:42:29;47.67;;;26.90;;
37513;SDS011;52779;42.670;23.326;2024-01-15T08:44:54;50.53;;;24.80;;
37513;SDS011;52779;42.670;23.326;2024-01-15T08:47:19;44.17;;;23.13;;
37513;SDS011;52779;42.670;23.326;2024-01-15T08:49:45;51.67;;;24.52;;
37513;SDS011;52779;42.670;23.326;2024-01-15T08:52:11;46.25;;;23.95;;
37513;SDS011;52779;42.670;23.326;2024-01-15T08:54:37;45.33;;;22.83;;
37513;SDS011;52779;42.670;23.326;2024-01-15T08:57:03;40.53;;;23.15;;
37513;SDS011;52779;42.670;23.326;2024-01-15T08:59:28;41.25;;;22.70;;
37513;SDS011;52779;42.670;23.326;2024-01-15T09:01:53;45.20;;;21.77;;
37513;SDS011;52779;42.670;23.326;2024-01-15T09:04:21;39.75;;;21.80;;
37513;SDS011;52779;42.670;23.326;2024-01-15T09:06:47;42.35;;;21.23;;
37513;SDS011;52779;42.670;23.326;2024-01-15T09:09:13;45.22;;;24.17;;
37513;SDS011;52779;42.670;23.326;2024-01-15T09:11:41;42.90;;;21.60;;
37513;SDS011;52779;42.670;23.326;2024-01-15T09:14:07;46.35;;;25.90;;
37513;SDS011;52779;42.670;23.326;2024-01-15T09:18:58;39.72;;;19.17;;
37513;SDS011;52779;42.670;23.326;2024-01-15T09:21:24;38.17;;;19.55;;
37513;SDS011;52779;42.670;23.326;2024-01-15T09:23:50;34.83;;;17.90;;
37513;SDS011;52779;42.670;23.326;2024-01-15T09:26:16;46.63;;;20.70;;
37513;SDS011;52779;42.670;23.326;2024-01-15T09:31:07;45.78;;;22.23;;
37513;SDS011;52779;42.670;23.326;2024-01-15T09:33:32;38.58;;;22.48;;
37513;SDS011;52779;42.670;23.326;2024-01-15T09:36:01;48.08;;;26.60;;
37513;SDS011;52779;42.670;23.326;2024-01-15T09:38:28;54.38;;;28.73;;
37513;SDS011;52779;42.670;23.326;2024-01-15T09:40:54;54.38;;;28.58;;
37513;SDS011;52779;42.670;23.326;2024-01-15T09:43:20;51.65;;;27.63;;
37513;SDS011;52779;42.670;23.326;2024-01-15T09:45:47;53.42;;;29.88;;
37513;SDS011;52779;42.670;23.326;2024-01-15T09:48:14;56.90;;;32.60;;
37513;SDS011;52779;42.670;23.326;2024-01-15T09:50:39;58.67;;;31.33;;
37513;SDS011;52779;42.670;23.326;2024-01-15T09:53:05;59.47;;;34.10;;
37513;SDS011;52779;42.670;23.326;2024-01-15T09:55:30;66.63;;;37.75;;
37513;SDS011;52779;42.670;23.326;2024-01-15T09:57:57;73.47;;;40.00;;
37513;SDS011;52779;42.670;23.326;2024-01-15T10:00:25;83.28;;;44.03;;
37513;SDS011;52779;42.670;23.326;2024-01-15T10:02:51;85.55;;;45.15;;
37513;SDS011;52779;42.670;23.326;2024-01-15T10:05:17;92.80;;;50.80;;
37513;SDS011;52779;42.670;23.326;2024-01-15T10:07:42;95.28;;;52.00;;
37513;SDS011;52779;42.670;23.326;2024-01-15T10:10:11;93.68;;;48.88;;
37513;SDS011;52779;42.670;23.326;2024-01-15T10:12:36;110.45;;;53.08;;
37513;SDS011;52779;42.670;23.326;2024-01-15T10:15:04;101.90;;;50.85;;
37513;SDS011;52779;42.670;23.326;2024-01-15T10:17:29;103.65;;;54.05;;
37513;SDS011;52779;42.670;23.326;2024-01-15T10:19:56;96.20;;;49.95;;
37513;SDS011;52779;42.670;23.326;2024-01-15T10:22:22;106.53;;;51.38;;
37513;SDS011;52779;42.670;23.326;2024-01-15T10:24:48;85.35;;;48.20;;
37513;SDS011;52779;42.670;23.326;2024-01-15T10:27:14;56.03;;;34.40;;
37513;SDS011;52779;42.670;23.326;2024-01-15T10:29:40;53.97;;;30.30;;
37513;SDS011;52779;42.670;23.326;2024-01-15T10:32:07;55.25;;;29.27;;
37513;SDS011;52779;42.670;23.326;2024-01-15T10:34:33;50.42;;;30.58;;
37513;SDS011;52779;42.670;23.326;2024-01-15T10:37:02;53.40;;;30.07;;
37513;SDS011;52779;42.670;23.326;2024-01-15T10:39:28;45.08;;;26.25;;
37513;SDS011;52779;42.670;23.326;2024-01-15T10:41:54;52.92;;;30.35;;
37513;SDS011;52779;42.670;23.326;2024-01-15T10:44:20;54.80;;;29.20;;
37513;SDS011;52779;42.670;23.326;2024-01-15T10:46:45;53.75;;;28.70;;
37513;SDS011;52779;42.670;23.326;2024-01-15T10:49:12;47.55;;;27.60;;
37513;SDS011;52779;42.670;23.326;2024-01-15T10:51:37;40.00;;;25.77;;
37513;SDS011;52779;42.670;23.326;2024-01-15T10:54:03;41.35;;;22.45;;
37513;SDS011;52779;42.670;23.326;2024-01-15T10:56:29;37.88;;;22.83;;
37513;SDS011;52779;42.670;23.326;2024-01-15T10:58:58;39.88;;;23.13;;
37513;SDS011;52779;42.670;23.326;2024-01-15T11:01:24;46.13;;;24.48;;
37513;SDS011;52779;42.670;23.326;2024-01-15T11:03:50;40.83;;;23.13;;
37513;SDS011;52779;42.670;23.326;2024-01-15T11:06:16;42.97;;;23.15;;
37513;SDS011;52779;42.670;23.326;2024-01-15T11:08:44;39.80;;;24.80;;
37513;SDS011;52779;42.670;23.326;2024-01-15T11:11:13;41.83;;;23.20;;
37513;SDS011;52779;42.670;23.326;2024-01-15T11:16:07;43.95;;;25.95;;
37513;SDS011;52779;42.670;23.326;2024-01-15T11:34:20;33.67;;;19.60;;
37513;SDS011;52779;42.670;23.326;2024-01-15T11:39:48;34.55;;;21.70;;
37513;SDS011;52779;42.670;23.326;2024-01-15T11:42:10;31.45;;;18.23;;
37513;SDS011;52779;42.670;23.326;2024-01-15T11:44:37;28.38;;;16.92;;
37513;SDS011;52779;42.670;23.326;2024-01-15T11:47:04;27.48;;;17.60;;
37513;SDS011;52779;42.670;23.326;2024-01-15T11:52:16;28.33;;;17.33;;
37513;SDS011;52779;42.670;23.326;2024-01-15T11:55:06;24.05;;;16.08;;
37513;SDS011;52779;42.670;23.326;2024-01-15T11:57:41;32.60;;;16.98;;
37513;SDS011;52779;42.670;23.326;2024-01-15T12:00:17;23.33;;;14.63;;
37513;SDS011;52779;42.670;23.326;2024-01-15T12:02:44;20.20;;;12.23;;
37513;SDS011;52779;42.670;23.326;2024-01-15T12:05:14;22.02;;;12.23;;
37513;SDS011;52779;42.670;23.326;2024-01-15T12:07:44;24.15;;;11.55;;
37513;SDS011;52779;42.670;23.326;2024-01-15T12:10:15;35.83;;;16.63;;
37513;SDS011;52779;42.670;23.326;2024-01-15T12:12:54;30.30;;;16.70;;
37513;SDS011;52779;42.670;23.326;2024-01-15T12:17:50;29.27;;;17.02;;
37513;SDS011;52779;42.670;23.326;2024-01-15T12:20:15;35.42;;;16.42;;
37513;SDS011;52779;42.670;23.326;2024-01-15T12:22:43;27.52;;;17.38;;
37513;SDS011;52779;42.670;23.326;2024-01-15T12:25:09;29.73;;;15.50;;
37513;SDS011;52779;42.670;23.326;2024-01-15T12:27:34;27.38;;;14.50;;
37513;SDS011;52779;42.670;23.326;2024-01-15T12:30:00;27.33;;;15.20;;
37513;SDS011;52779;42.670;23.326;2024-01-15T12:32:25;25.05;;;14.32;;
37513;SDS011;52779;42.670;23.326;2024-01-15T12:34:51;29.00;;;14.82;;
37513;SDS011;52779;42.670;23.326;2024-01-15T12:37:19;26.23;;;15.35;;
37513;SDS011;52779;42.670;23.326;2024-01-15T12:39:45;28.30;;;15.13;;
37513;SDS011;52779;42.670;23.326;2024-01-15T12:42:10;29.10;;;14.48;;
37513;SDS011;52779;42.670;23.326;2024-01-15T12:44:36;28.33;;;15.18;;
37513;SDS011;52779;42.670;23.326;2024-01-15T12:47:03;24.00;;;13.63;;
37513;SDS011;52779;42.670;23.326;2024-01-15T12:49:29;24.55;;;13.07;;
37513;SDS011;52779;42.670;23.326;2024-01-15T12:51:58;24.63;;;14.43;;
37513;SDS011;52779;42.670;23.326;2024-01-15T12:54:24;25.65;;;13.98;;
37513;SDS011;52779;42.670;23.326;2024-01-15T12:56:50;31.05;;;15.40;;
37513;SDS011;52779;42.670;23.326;2024-01-15T12:59:16;24.58;;;15.85;;
37513;SDS011;52779;42.670;23.326;2024-01-15T13:01:42;27.95;;;14.80;;
37513;SDS011;52779;42.670;23.326;2024-01-15T13:04:07;30.83;;;14.55;;
37513;SDS011;52779;42.670;23.326;2024-01-15T13:06:36;27.90;;;15.35;;
37513;SDS011;52779;42.670;23.326;2024-01-15T13:09:02;25.80;;;14.38;;
37513;SDS011;52779;42.670;23.326;2024-01-15T13:11:31;28.70;;;14.07;;
37513;SDS011;52779;42.670;23.326;2024-01-15T13:13:57;23.70;;;14.15;;
37513;SDS011;52779;42.670;23.326;2024-01-15T13:16:22;23.50;;;14.43;;
37513;SDS011;52779;42.670;23.326;2024-01-15T13:18:48;27.58;;;14.75;;
37513;SDS011;52779;42.670;23.326;2024-01-15T13:21:14;26.23;;;15.25;;
37513;SDS011;52779;42.670;23.326;2024-01-15T13:23:40;28.15;;;14.02;;
37513;SDS011;52779;42.670;23.326;2024-01-15T13:26:05;27.60;;;15.05;;
37513;SDS011;52779;42.670;23.326;2024-01-15T13:28:32;27.92;;;13.68;;
37513;SDS011;52779;42.670;23.326;2024-01-15T13:30:57;31.88;;;16.60;;
37513;SDS011;52779;42.670;23.326;2024-01-15T13:33:23;29.13;;;16.42;;
37513;SDS011;52779;42.670;23.326;2024-01-15T13:35:48;33.78;;;16.23;;
37513;SDS011;52779;42.670;23.326;2024-01-15T13:38:16;27.55;;;15.35;;
37513;SDS011;52779;42.670;23.326;2024-01-15T13:40:41;35.17;;;17.50;;
37513;SDS011;52779;42.670;23.326;2024-01-15T13:43:09;31.58;;;16.17;;
37513;SDS011;52779;42.670;23.326;2024-01-15T13:45:34;31.30;;;17.13;;
37513;SDS011;52779;42.670;23.326;2024-01-15T13:48:01;30.38;;;16.92;;
37513;SDS011;52779;42.670;23.326;2024-01-15T13:50:30;32.95;;;18.58;;
37513;SDS011;52779;42.670;23.326;2024-01-15T13:52:58;34.08;;;17.48;;
37513;SDS011;52779;42.670;23.326;2024-01-15T13:55:23;31.70;;;18.48;;
37513;SDS011;52779;42.670;23.326;2024-01-15T13:57:48;30.92;;;17.85;;
37513;SDS011;52779;42.670;23.326;2024-01-15T14:00:14;31.25;;;17.52;;
37513;SDS011;52779;42.670;23.326;2024-01-15T14:02:43;34.80;;;17.52;;
37513;SDS011;52779;42.670;23.326;2024-01-15T14:05:09;32.83;;;17.08;;
37513;SDS011;52779;42.670;23.326;2024-01-15T14:07:37;34.70;;;17.38;;
37513;SDS011;52779;42.670;23.326;2024-01-15T14:10:03;33.97;;;16.65;;
37513;SDS011;52779;42.670;23.326;2024-01-15T14:12:29;37.00;;;18.60;;
37513;SDS011;52779;42.670;23.326;2024-01-15T14:14:54;34.22;;;18.60;;
37513;SDS011;52779;42.670;23.326;2024-01-15T14:17:20;31.48;;;18.73;;
37513;SDS011;52779;42.670;23.326;2024-01-15T14:19:45;31.73;;;17.63;;
37513;SDS011;52779;42.670;23.326;2024-01-15T14:22:11;34.22;;;21.40;;
37513;SDS011;52779;42.670;23.326;2024-01-15T14:24:36;35.70;;;19.83;;
37513;SDS011;52779;42.670;23.326;2024-01-15T14:27:01;33.50;;;18.60;;
37513;SDS011;52779;42.670;23.326;2024-01-15T14:29:27;36.22;;;19.33;;
37513;SDS011;52779;42.670;23.326;2024-01-15T14:31:52;38.53;;;19.88;;
37513;SDS011;52779;42.670;23.326;2024-01-15T14:34:18;37.03;;;20.27;;